Time;durP1;ratioP1;P1;durP2;ratioP2;P2;SDS_P1;SDS_P2;PMS_P1;PMS_P2;Temp;Humidity;BMP_temperature;BMP_pressure;BME280_temperature;BME280_humidity;BME280_pressure;Samples;Min_cycle;Max_cycle;Signal;HPM_P1;HPM_P2
2023/05/26 00:01:05;;;;;;;8.00;6.17;;;15.40;1.00;;;;;;5065097;28;20277;-56
2023/05/26 00:03:31;;;;;;;6.60;5.90;;;15.40;1.00;;;;;;5064771;28;20219;-54
2023/05/26 00:05:57;;;;;;;10.57;6.30;;;15.50;1.00;;;;;;5062758;28;20450;-56
2023/05/26 00:08:23;;;;;;;9.13;5.97;;;15.40;1.00;;;;;;5065036;28;20508;-55
2023/05/26 00:10:48;;;;;;;6.47;5.73;;;15.40;1.00;;;;;;5063947;28;20183;-55
2023/05/26 00:13:14;;;;;;;6.40;5.33;;;15.40;1.00;;;;;;5067902;28;20195;-56
2023/05/26 00:15:41;;;;;;;7.53;6.37;;;15.30;1.00;;;;;;5063081;28;20196;-56
2023/05/26 00:18:06;;;;;;;13.07;7.40;;;15.30;1.00;;;;;;5065535;28;20450;-57
2023/05/26 00:20:33;;;;;;;9.20;6.43;;;15.20;1.00;;;;;;5064217;28;20452;-56
2023/05/26 00:22:59;;;;;;;10.20;6.87;;;15.20;1.00;;;;;;5063752;28;20481;-56
2023/05/26 00:25:25;;;;;;;10.30;6.30;;;15.10;1.00;;;;;;5068118;28;20454;-56
2023/05/26 00:27:50;;;;;;;7.53;6.30;;;15.10;1.00;;;;;;5064763;28;20953;-56
2023/05/26 00:30:16;;;;;;;8.00;6.30;;;15.20;1.00;;;;;;5059622;28;20199;-56
2023/05/26 00:32:42;;;;;;;8.47;7.07;;;15.10;1.00;;;;;;5064489;28;20213;-57
2023/05/26 00:35:08;;;;;;;7.80;5.77;;;15.10;1.00;;;;;;5066717;28;20203;-55
2023/05/26 00:37:33;;;;;;;9.40;7.00;;;15.10;1.00;;;;;;5065641;28;20580;-56
2023/05/26 00:39:59;;;;;;;10.57;8.07;;;15.00;1.00;;;;;;5064542;28;20500;-56
2023/05/26 00:42:25;;;;;;;12.90;8.83;;;15.00;1.00;;;;;;5068226;28;20307;-55
2023/05/26 00:44:51;;;;;;;9.77;8.43;;;15.00;1.00;;;;;;5066397;28;20285;-57
2023/05/26 00:47:17;;;;;;;11.90;7.10;;;15.00;1.00;;;;;;5065501;28;20188;-55
2023/05/26 00:49:44;;;;;;;11.80;7.03;;;15.00;1.00;;;;;;5068956;28;20452;-55
2023/05/26 00:52:10;;;;;;;8.23;6.80;;;15.10;1.00;;;;;;5067095;28;20454;-57
2023/05/26 00:54:38;;;;;;;9.97;7.77;;;15.00;1.00;;;;;;5068996;28;20446;-56
2023/05/26 00:57:04;;;;;;;8.97;7.43;;;14.90;1.00;;;;;;5070214;28;20543;-55
2023/05/26 00:59:30;;;;;;;11.07;7.17;;;14.80;1.00;;;;;;5066474;28;20854;-56
2023/05/26 01:01:55;;;;;;;13.17;7.93;;;14.80;1.00;;;;;;5068408;28;20470;-56
2023/05/26 01:04:21;;;;;;;11.70;8.27;;;14.80;1.00;;;;;;5066529;28;20242;-55
2023/05/26 01:06:49;;;;;;;10.50;7.33;;;14.70;1.00;;;;;;5066278;28;20198;-55
2023/05/26 01:09:15;;;;;;;10.63;7.07;;;14.70;1.00;;;;;;5072052;28;20271;-57
2023/05/26 01:11:58;;;;;;;9.73;8.00;;;14.60;1.00;;;;;;5071854;28;20499;-56
2023/05/26 01:14:37;;;;;;;9.50;6.53;;;14.60;1.00;;;;;;5072318;28;20521;-56
2023/05/26 01:17:16;;;;;;;8.90;6.70;;;14.50;1.00;;;;;;5069448;28;20446;-57
2023/05/26 01:20:07;;;;;;;10.17;6.70;;;14.50;1.00;;;;;;5070309;28;20457;-56
2023/05/26 01:22:41;;;;;;;10.27;6.70;;;14.50;1.00;;;;;;5071591;28;20480;-56
2023/05/26 01:25:27;;;;;;;8.67;6.87;;;14.50;1.00;;;;;;5071042;28;20441;-56
2023/05/26 01:28:14;;;;;;;10.30;8.27;;;14.50;1.00;;;;;;5071877;28;20465;-56
2023/05/26 01:30:42;;;;;;;10.10;7.87;;;14.40;1.00;;;;;;5066750;28;20443;-57
2023/05/26 01:33:08;;;;;;;9.80;7.20;;;14.40;1.00;;;;;;5070086;28;20546;-56
2023/05/26 01:35:34;;;;;;;9.57;7.17;;;14.40;1.00;;;;;;5068054;28;21038;-56
2023/05/26 01:38:00;;;;;;;11.90;8.30;;;14.30;1.00;;;;;;5069843;28;20480;-57
2023/05/26 01:40:28;;;;;;;10.33;7.93;;;14.20;1.00;;;;;;5069218;28;20215;-57
2023/05/26 01:43:09;;;;;;;8.97;7.67;;;14.20;1.00;;;;;;5071966;28;20599;-56
2023/05/26 01:45:50;;;;;;;8.47;7.07;;;14.20;1.00;;;;;;5069511;28;20480;-56
2023/05/26 01:48:17;;;;;;;9.47;8.07;;;14.20;1.00;;;;;;5069812;28;20466;-57
2023/05/26 01:50:52;;;;;;;12.80;8.40;;;14.20;1.00;;;;;;5068928;28;20446;-56
2023/05/26 01:53:23;;;;;;;8.90;7.20;;;14.10;1.00;;;;;;5066394;28;20445;-56
2023/05/26 01:55:54;;;;;;;11.00;7.43;;;14.10;1.00;;;;;;5068260;28;20500;-57
2023/05/26 01:58:22;;;;;;;9.97;8.17;;;14.00;1.00;;;;;;5070531;28;20478;-55
2023/05/26 02:00:48;;;;;;;9.00;7.53;;;14.00;1.00;;;;;;5068315;28;20559;-57
2023/05/26 02:03:14;;;;;;;13.60;7.77;;;14.10;1.00;;;;;;5067666;28;20469;-56
2023/05/26 02:05:40;;;;;;;10.50;7.77;;;14.00;1.00;;;;;;5066402;28;20203;-56
2023/05/26 02:08:06;;;;;;;11.40;7.83;;;14.00;1.00;;;;;;5065990;28;20942;-55
2023/05/26 02:10:32;;;;;;;14.83;7.60;;;14.00;1.00;;;;;;5061847;28;20204;-57
2023/05/26 02:12:57;;;;;;;11.07;7.73;;;14.00;1.00;;;;;;5067339;28;20192;-57
2023/05/26 02:15:23;;;;;;;8.83;7.87;;;13.90;1.00;;;;;;5066179;28;20210;-55
2023/05/26 02:17:48;;;;;;;11.43;7.90;;;13.90;1.00;;;;;;5065350;28;20210;-56
2023/05/26 02:20:17;;;;;;;11.47;8.33;;;13.90;1.00;;;;;;5068134;28;20253;-57
2023/05/26 02:22:43;;;;;;;8.90;7.73;;;13.80;1.00;;;;;;5067906;28;20621;-56
2023/05/26 02:25:08;;;;;;;11.87;7.80;;;13.70;1.00;;;;;;5069140;28;20496;-55
2023/05/26 02:27:34;;;;;;;9.73;7.70;;;13.60;1.00;;;;;;5066243;28;20255;-55
2023/05/26 02:30:00;;;;;;;10.80;9.03;;;13.60;1.00;;;;;;5067326;28;20670;-55
2023/05/26 02:32:26;;;;;;;10.57;7.83;;;13.70;1.00;;;;;;5065192;28;20481;-56
2023/05/26 02:34:52;;;;;;;12.30;8.10;;;13.70;1.00;;;;;;5069352;28;20196;-57
2023/05/26 02:37:18;;;;;;;10.70;8.07;;;13.80;1.00;;;;;;5065619;28;20222;-55
2023/05/26 02:39:43;;;;;;;13.13;9.30;;;13.80;1.00;;;;;;5068508;28;20453;-55
2023/05/26 02:42:09;;;;;;;11.73;7.83;;;13.80;1.00;;;;;;5067816;28;20214;-55
2023/05/26 02:44:35;;;;;;;9.43;8.40;;;13.90;1.00;;;;;;5068595;28;20204;-55
2023/05/26 02:47:00;;;;;;;10.60;7.87;;;13.80;1.00;;;;;;5067402;28;20211;-56
2023/05/26 02:49:26;;;;;;;12.13;7.80;;;13.70;1.00;;;;;;5066956;28;20245;-56
2023/05/26 02:51:52;;;;;;;13.17;9.17;;;13.70;1.00;;;;;;5063502;28;20195;-56
2023/05/26 02:54:18;;;;;;;12.63;7.80;;;13.70;1.00;;;;;;5068545;28;20454;-56
2023/05/26 02:56:43;;;;;;;9.60;8.20;;;13.70;1.00;;;;;;5065487;28;20235;-56
2023/05/26 02:59:09;;;;;;;9.00;7.03;;;13.80;1.00;;;;;;5068693;28;20204;-54
2023/05/26 03:01:35;;;;;;;10.77;7.70;;;13.80;1.00;;;;;;5064522;28;20210;-56
2023/05/26 03:04:01;;;;;;;12.53;8.17;;;13.90;1.00;;;;;;5066031;28;21108;-56
2023/05/26 03:06:27;;;;;;;9.90;8.47;;;14.00;1.00;;;;;;5067222;28;20207;-56
2023/05/26 03:08:53;;;;;;;14.87;9.20;;;14.10;1.00;;;;;;5069513;28;20203;-56
2023/05/26 03:11:18;;;;;;;11.00;9.60;;;14.10;1.00;;;;;;5069354;28;20434;-55
2023/05/26 03:13:44;;;;;;;13.33;8.10;;;14.20;1.00;;;;;;5069842;28;20211;-56
2023/05/26 03:16:11;;;;;;;14.23;8.10;;;14.20;1.00;;;;;;5069639;28;20180;-56
2023/05/26 03:18:37;;;;;;;11.87;7.60;;;14.20;1.00;;;;;;5069499;28;20277;-56
2023/05/26 03:21:06;;;;;;;10.13;8.10;;;14.20;1.00;;;;;;5067718;28;20757;-56
2023/05/26 03:23:31;;;;;;;9.97;8.30;;;14.20;1.00;;;;;;5067083;28;20220;-56
2023/05/26 03:25:57;;;;;;;12.10;8.53;;;14.20;1.00;;;;;;5067129;28;20445;-56
2023/05/26 03:28:23;;;;;;;10.00;8.57;;;14.20;1.00;;;;;;5067473;28;20967;-56
2023/05/26 03:30:49;;;;;;;8.70;7.73;;;14.10;1.00;;;;;;5068219;28;20176;-56
2023/05/26 03:33:15;;;;;;;9.37;7.70;;;14.00;1.00;;;;;;5066423;28;20199;-58
2023/05/26 03:35:40;;;;;;;9.00;7.77;;;14.10;1.00;;;;;;5066876;28;20454;-56
2023/05/26 03:38:06;;;;;;;12.33;7.83;;;14.10;1.00;;;;;;5069130;28;20195;-54
2023/05/26 03:40:31;;;;;;;14.00;8.37;;;14.10;1.00;;;;;;5063552;28;20188;-55
2023/05/26 03:42:57;;;;;;;9.70;8.70;;;14.20;1.00;;;;;;5065467;28;20295;-54
2023/05/26 03:45:23;;;;;;;12.83;7.70;;;14.20;1.00;;;;;;5066342;28;20266;-56
2023/05/26 03:47:49;;;;;;;9.63;8.27;;;14.30;1.00;;;;;;5064062;28;20334;-57
2023/05/26 03:50:15;;;;;;;12.10;8.43;;;14.30;1.00;;;;;;5063749;28;20176;-56
2023/05/26 03:52:41;;;;;;;52.47;39.43;;;14.40;1.00;;;;;;5073771;28;20436;-56
2023/05/26 03:55:09;;;;;;;10.27;8.57;;;14.40;1.00;;;;;;5068583;28;20860;-56
2023/05/26 03:57:35;;;;;;;9.90;8.87;;;14.40;1.00;;;;;;5065185;28;21001;-56
2023/05/26 04:00:03;;;;;;;9.50;8.27;;;14.40;1.00;;;;;;5064558;28;20532;-55
2023/05/26 04:02:29;;;;;;;11.43;8.73;;;14.30;1.00;;;;;;5064882;28;20465;-56
2023/05/26 04:04:55;;;;;;;10.93;8.40;;;14.40;1.00;;;;;;5063232;28;20451;-56
2023/05/26 04:07:21;;;;;;;9.80;8.50;;;14.60;1.00;;;;;;5059333;28;20203;-56
2023/05/26 04:09:46;;;;;;;9.37;8.13;;;14.60;1.00;;;;;;5064210;28;20441;-57
2023/05/26 04:12:12;;;;;;;11.20;8.20;;;14.70;1.00;;;;;;5063080;28;20666;-56
2023/05/26 04:14:38;;;;;;;13.40;9.03;;;14.70;1.00;;;;;;5059884;28;20191;-56
2023/05/26 04:17:04;;;;;;;10.17;7.83;;;14.90;1.00;;;;;;5064431;28;20234;-56
2023/05/26 04:19:29;;;;;;;14.77;8.83;;;14.90;1.00;;;;;;5067202;28;21052;-56
2023/05/26 04:21:55;;;;;;;9.90;8.20;;;15.00;1.00;;;;;;5066620;28;20211;-58
2023/05/26 04:24:20;;;;;;;14.40;8.37;;;15.10;1.00;;;;;;5069813;28;20545;-58
2023/05/26 04:26:46;;;;;;;10.20;8.20;;;15.20;1.00;;;;;;5067328;28;20187;-59
2023/05/26 04:29:12;;;;;;;11.23;7.97;;;15.20;1.00;;;;;;5067664;28;20199;-58
2023/05/26 04:31:42;;;;;;;12.17;8.50;;;15.20;1.00;;;;;;5067007;28;20195;-59
2023/05/26 04:34:08;;;;;;;11.27;8.03;;;15.10;1.00;;;;;;5075763;28;20710;-59
2023/05/26 04:36:38;;;;;;;10.23;8.23;;;15.20;1.00;;;;;;5071436;28;20537;-57
2023/05/26 04:39:04;;;;;;;9.83;7.90;;;15.30;1.00;;;;;;5072397;28;20426;-59
2023/05/26 04:41:29;;;;;;;13.60;9.40;;;15.40;1.00;;;;;;5072197;28;20932;-57
2023/05/26 04:43:55;;;;;;;11.50;9.20;;;15.60;1.00;;;;;;5075319;28;20180;-57
2023/05/26 04:46:21;;;;;;;11.27;8.40;;;15.40;1.00;;;;;;5070132;28;20211;-58
2023/05/26 04:48:47;;;;;;;9.57;8.00;;;15.40;1.00;;;;;;5071167;28;20264;-56
2023/05/26 04:51:13;;;;;;;12.00;8.70;;;15.40;1.00;;;;;;5068320;28;20188;-57
2023/05/26 04:53:38;;;;;;;11.13;8.90;;;15.50;1.00;;;;;;5069910;28;20481;-58
2023/05/26 04:56:05;;;;;;;12.77;9.40;;;15.60;1.00;;;;;;5068330;28;20309;-59
2023/05/26 04:58:32;;;;;;;13.33;8.80;;;15.60;1.00;;;;;;5066655;28;20234;-57
2023/05/26 05:00:58;;;;;;;11.47;10.27;;;15.50;1.00;;;;;;5068635;28;20858;-55
2023/05/26 05:03:24;;;;;;;13.63;10.23;;;15.50;1.00;;;;;;5068772;28;20557;-57
2023/05/26 05:05:50;;;;;;;11.17;8.50;;;15.60;1.00;;;;;;5069225;28;21276;-57
2023/05/26 05:08:16;;;;;;;11.73;8.63;;;15.70;1.00;;;;;;5063676;28;20633;-56
2023/05/26 05:10:41;;;;;;;9.70;8.13;;;16.00;1.00;;;;;;5065824;28;20568;-57
2023/05/26 05:13:07;;;;;;;12.43;9.90;;;16.20;1.00;;;;;;5072451;28;20438;-56
2023/05/26 05:15:32;;;;;;;15.07;9.73;;;16.30;1.00;;;;;;5069464;28;20196;-57
2023/05/26 05:17:58;;;;;;;16.17;9.37;;;16.30;1.00;;;;;;5066349;28;20192;-56
2023/05/26 05:20:25;;;;;;;11.27;9.73;;;16.50;1.00;;;;;;5076580;28;20191;-58
2023/05/26 05:22:50;;;;;;;12.53;8.53;;;16.60;1.00;;;;;;5074171;28;20206;-56
2023/05/26 05:25:17;;;;;;;15.33;9.77;;;16.60;1.00;;;;;;5067063;28;20799;-57
2023/05/26 05:27:43;;;;;;;12.53;9.63;;;16.70;1.00;;;;;;5066509;28;20187;-57
2023/05/26 05:30:09;;;;;;;10.83;9.33;;;16.80;1.00;;;;;;5067599;28;21016;-58
2023/05/26 05:32:34;;;;;;;19.93;9.30;;;16.80;1.00;;;;;;5083123;28;20179;-55
2023/05/26 05:35:00;;;;;;;16.13;9.47;;;17.00;1.00;;;;;;5068503;28;20515;-57
2023/05/26 05:37:26;;;;;;;15.10;10.40;;;17.00;1.00;;;;;;5068641;28;20192;-57
2023/05/26 05:39:51;;;;;;;10.00;9.00;;;16.90;1.00;;;;;;5067349;28;20230;-57
2023/05/26 05:42:17;;;;;;;11.20;8.43;;;16.80;1.00;;;;;;5068740;28;20253;-58
2023/05/26 05:44:43;;;;;;;9.27;8.17;;;16.80;1.00;;;;;;5067870;28;20188;-57
2023/05/26 05:47:08;;;;;;;12.80;8.80;;;16.90;1.00;;;;;;5065211;28;20176;-56
2023/05/26 05:49:34;;;;;;;13.90;10.20;;;16.70;1.00;;;;;;5064001;28;20195;-57
2023/05/26 05:51:59;;;;;;;12.87;9.00;;;16.70;1.00;;;;;;5060583;28;20194;-55
2023/05/26 05:54:25;;;;;;;12.57;10.60;;;16.60;1.00;;;;;;5067560;28;20246;-56
2023/05/26 05:56:51;;;;;;;11.97;9.40;;;16.50;1.00;;;;;;5060540;28;20215;-56
2023/05/26 05:59:16;;;;;;;13.60;9.80;;;16.30;1.00;;;;;;5069000;28;20339;-57
2023/05/26 06:01:42;;;;;;;10.73;8.50;;;16.30;1.00;;;;;;5064993;28;20257;-57
2023/05/26 06:04:08;;;;;;;13.83;9.90;;;16.30;1.00;;;;;;5064934;28;20650;-56
2023/05/26 06:06:33;;;;;;;11.73;9.47;;;16.30;1.00;;;;;;5066978;28;20446;-56
2023/05/26 06:08:59;;;;;;;13.67;11.10;;;16.20;1.00;;;;;;5068289;28;20245;-55
2023/05/26 06:11:25;;;;;;;12.13;10.00;;;16.30;1.00;;;;;;5064440;28;20199;-56
2023/05/26 06:13:51;;;;;;;13.03;9.87;;;16.30;1.00;;;;;;5068179;28;20183;-56
2023/05/26 06:16:16;;;;;;;16.40;9.70;;;16.30;1.00;;;;;;5063003;28;20446;-56
2023/05/26 06:18:42;;;;;;;13.27;10.43;;;16.20;1.00;;;;;;5064613;28;20192;-56
2023/05/26 06:21:08;;;;;;;15.90;10.00;;;16.10;1.00;;;;;;5063618;28;20649;-55
2023/05/26 06:23:34;;;;;;;12.67;9.33;;;16.20;1.00;;;;;;5066056;28;20243;-57
2023/05/26 06:25:59;;;;;;;11.63;10.23;;;16.20;1.00;;;;;;5069798;28;20633;-56
2023/05/26 06:28:25;;;;;;;9.63;8.63;;;16.30;1.00;;;;;;5065789;28;20477;-57
2023/05/26 06:30:51;;;;;;;13.37;8.77;;;16.50;1.00;;;;;;5062250;28;20191;-56
2023/05/26 06:33:16;;;;;;;11.37;9.70;;;16.50;1.00;;;;;;5065512;28;20192;-57
2023/05/26 06:35:42;;;;;;;16.80;10.60;;;16.50;1.00;;;;;;5066137;28;20279;-57
2023/05/26 06:38:07;;;;;;;14.43;10.37;;;16.50;1.00;;;;;;5069590;28;20190;-56
2023/05/26 06:40:35;;;;;;;17.07;10.43;;;16.70;1.00;;;;;;5065701;28;20218;-56
2023/05/26 06:43:01;;;;;;;12.10;10.20;;;16.90;1.00;;;;;;5063841;28;20340;-57
2023/05/26 06:45:26;;;;;;;14.03;9.87;;;17.10;1.00;;;;;;5068219;28;20445;-57
2023/05/26 06:47:52;;;;;;;11.43;10.23;;;17.30;1.00;;;;;;5063230;28;20184;-57
2023/05/26 06:50:17;;;;;;;13.63;10.20;;;17.30;1.00;;;;;;5068020;28;20195;-57
2023/05/26 06:52:43;;;;;;;10.97;9.23;;;17.40;99.90;;;;;;5066644;28;20199;-57
2023/05/26 06:55:09;;;;;;;12.03;10.50;;;17.60;99.90;;;;;;5068977;28;20245;-57
2023/05/26 06:57:34;;;;;;;15.10;10.90;;;17.90;99.90;;;;;;5065947;28;20231;-57
2023/05/26 07:00:00;;;;;;;12.50;9.10;;;17.90;99.90;;;;;;5067708;28;20605;-57
2023/05/26 07:02:25;;;;;;;10.50;9.40;;;18.10;99.90;;;;;;5066544;28;20215;-57
2023/05/26 07:04:51;;;;;;;16.07;10.67;;;18.30;99.90;;;;;;5065707;28;20203;-57
2023/05/26 07:07:17;;;;;;;13.17;9.30;;;18.40;99.90;;;;;;5069289;28;20179;-57
2023/05/26 07:09:42;;;;;;;10.97;8.60;;;18.60;99.90;;;;;;5069589;28;20184;-57
2023/05/26 07:12:09;;;;;;;12.93;9.10;;;18.70;99.90;;;;;;5069524;28;20222;-58
2023/05/26 07:14:35;;;;;;;15.63;11.03;;;18.70;99.90;;;;;;5064935;28;20221;-58
2023/05/26 07:17:00;;;;;;;11.10;9.00;;;18.60;99.90;;;;;;5066605;28;20922;-57
2023/05/26 07:19:26;;;;;;;9.83;8.83;;;18.50;99.90;;;;;;5067424;28;20283;-56
2023/05/26 07:21:52;;;;;;;11.70;10.17;;;18.60;99.90;;;;;;5066732;28;20179;-57
2023/05/26 07:24:17;;;;;;;10.83;8.90;;;18.30;99.90;;;;;;5066551;28;20723;-56
2023/05/26 07:26:43;;;;;;;11.00;9.33;;;18.30;99.90;;;;;;5066348;28;20192;-56
2023/05/26 07:29:08;;;;;;;11.60;9.07;;;18.70;99.90;;;;;;5068480;28;20229;-57
2023/05/26 07:31:34;;;;;;;11.40;9.43;;;18.60;99.90;;;;;;5059562;28;20883;-56
2023/05/26 07:34:00;;;;;;;10.20;8.60;;;18.40;99.90;;;;;;5065932;28;20194;-56
2023/05/26 07:36:25;;;;;;;13.20;8.90;;;18.60;99.90;;;;;;5061530;28;20199;-57
2023/05/26 07:38:51;;;;;;;11.97;8.53;;;18.50;99.90;;;;;;5060530;28;20190;-56
2023/05/26 07:41:17;;;;;;;12.33;7.23;;;18.40;99.90;;;;;;5060205;28;20239;-56
2023/05/26 07:43:42;;;;;;;12.40;7.40;;;18.50;99.90;;;;;;5071308;28;20228;-57
2023/05/26 07:46:08;;;;;;;13.10;7.43;;;18.50;99.90;;;;;;5060730;28;20191;-57
2023/05/26 07:48:33;;;;;;;16.93;7.80;;;18.80;99.90;;;;;;5065449;28;20187;-58
2023/05/26 07:50:59;;;;;;;13.10;8.00;;;19.10;99.90;;;;;;5058926;28;20193;-57
2023/05/26 07:53:25;;;;;;;17.57;7.77;;;19.50;99.90;;;;;;5063385;28;20191;-55
2023/05/26 07:55:50;;;;;;;12.27;7.53;;;19.90;99.90;;;;;;5066719;28;20192;-56
2023/05/26 07:58:17;;;;;;;20.13;7.90;;;20.20;99.90;;;;;;5069198;28;20342;-57
2023/05/26 08:00:43;;;;;;;20.63;8.40;;;20.50;99.90;;;;;;5068939;28;20639;-56
2023/05/26 08:03:08;;;;;;;12.27;8.47;;;20.60;99.90;;;;;;5068416;28;20469;-57
2023/05/26 08:05:34;;;;;;;13.40;7.60;;;20.50;99.90;;;;;;5072873;28;20191;-57
2023/05/26 08:08:00;;;;;;;12.33;7.10;;;20.50;99.90;;;;;;5069840;28;20234;-57
2023/05/26 08:10:25;;;;;;;15.97;7.80;;;20.20;99.90;;;;;;5069578;28;20195;-56
2023/05/26 08:12:53;;;;;;;14.03;7.93;;;20.30;99.90;;;;;;5071607;28;20199;-57
2023/05/26 08:15:20;;;;;;;11.60;7.43;;;20.10;99.90;;;;;;5063601;28;20289;-57
2023/05/26 08:17:47;;;;;;;12.23;7.27;;;20.40;99.90;;;;;;5075995;28;20636;-57
2023/05/26 08:20:13;;;;;;;14.40;7.03;;;19.90;99.90;;;;;;5069461;28;20456;-57
2023/05/26 08:22:38;;;;;;;9.20;7.27;;;20.10;99.90;;;;;;5072528;28;20461;-57
2023/05/26 08:25:04;;;;;;;12.00;7.47;;;20.70;99.90;;;;;;5070626;28;20531;-57
2023/05/26 08:27:30;;;;;;;8.73;6.80;;;21.30;99.90;;;;;;5070477;28;20217;-57
2023/05/26 08:29:56;;;;;;;10.50;6.60;;;21.50;99.90;;;;;;5066971;28;20970;-56
2023/05/26 08:32:22;;;;;;;13.63;6.30;;;21.30;99.90;;;;;;5069357;28;20187;-56
2023/05/26 08:34:48;;;;;;;13.97;7.53;;;21.10;99.90;;;;;;5067728;28;20199;-56
2023/05/26 08:37:14;;;;;;;14.43;6.97;;;20.90;99.90;;;;;;5071100;28;20435;-57
2023/05/26 08:39:40;;;;;;;11.87;5.97;;;20.80;99.90;;;;;;5072181;28;20184;-57
2023/05/26 08:42:10;;;;;;;12.33;5.70;;;20.90;99.90;;;;;;5072186;28;20565;-57
2023/05/26 08:44:36;;;;;;;16.13;6.23;;;21.20;99.90;;;;;;5068230;28;20752;-57
2023/05/26 08:47:03;;;;;;;14.20;5.93;;;21.60;99.90;;;;;;5071484;28;20495;-57
2023/05/26 08:49:40;;;;;;;12.10;5.97;;;21.90;99.90;;;;;;5066117;28;20449;-58
2023/05/26 08:52:10;;;;;;;11.50;5.47;;;22.40;99.90;;;;;;5067669;28;21932;-57
2023/05/26 08:54:37;;;;;;;10.67;5.30;;;22.50;99.90;;;;;;5069336;28;20497;-58
2023/05/26 08:57:04;;;;;;;11.03;5.63;;;22.30;99.90;;;;;;5074508;28;21229;-57
2023/05/26 08:59:31;;;;;;;8.53;5.10;;;22.00;99.90;;;;;;5078815;28;20527;-57
2023/05/26 09:01:57;;;;;;;12.80;5.83;;;21.90;99.90;;;;;;5070942;28;20984;-58
2023/05/26 09:04:23;;;;;;;11.23;6.80;;;22.00;99.90;;;;;;5064753;28;20445;-56
2023/05/26 09:06:48;;;;;;;8.30;4.80;;;21.70;99.90;;;;;;5065539;28;20672;-56
2023/05/26 09:09:17;;;;;;;10.97;5.63;;;21.40;99.90;;;;;;5068074;28;20446;-57
2023/05/26 09:11:44;;;;;;;11.63;5.50;;;21.20;99.90;;;;;;5068974;28;20208;-57
2023/05/26 09:14:14;;;;;;;9.90;5.37;;;21.20;99.90;;;;;;5069691;28;20993;-57
2023/05/26 09:16:40;;;;;;;14.77;6.40;;;21.40;99.90;;;;;;5068708;28;20960;-58
2023/05/26 09:19:06;;;;;;;10.67;5.57;;;21.80;99.90;;;;;;5070701;28;20472;-57
2023/05/26 09:21:32;;;;;;;9.77;5.70;;;21.90;99.90;;;;;;5067210;28;20449;-58
2023/05/26 09:23:59;;;;;;;10.77;5.20;;;22.00;99.90;;;;;;5068647;28;20474;-58
2023/05/26 09:26:38;;;;;;;9.30;5.07;;;22.00;99.90;;;;;;5069460;28;20287;-57
2023/05/26 09:29:07;;;;;;;8.20;5.37;;;22.00;99.90;;;;;;5071734;28;20517;-58
2023/05/26 09:31:49;;;;;;;9.90;5.67;;;22.10;99.90;;;;;;5068347;28;20442;-57
2023/05/26 09:34:17;;;;;;;10.73;5.30;;;22.10;99.90;;;;;;5071563;28;20534;-57
2023/05/26 09:36:43;;;;;;;13.70;4.60;;;22.10;99.90;;;;;;5067481;28;20447;-58
2023/05/26 09:39:12;;;;;;;12.57;5.17;;;22.40;99.90;;;;;;5070000;28;20456;-56
2023/05/26 09:41:45;;;;;;;9.20;4.60;;;22.10;99.90;;;;;;5071099;28;20471;-56
2023/05/26 09:44:16;;;;;;;7.67;4.83;;;22.10;99.90;;;;;;5086246;28;20466;-57
2023/05/26 09:46:43;;;;;;;9.33;4.53;;;22.00;99.90;;;;;;5070792;28;20465;-57
2023/05/26 09:49:16;;;;;;;10.47;5.40;;;22.30;99.90;;;;;;5065566;28;20443;-57
2023/05/26 09:51:45;;;;;;;7.80;4.50;;;22.70;99.90;;;;;;5078361;28;20556;-57
2023/05/26 09:54:12;;;;;;;11.90;5.97;;;23.10;99.90;;;;;;5070943;28;20443;-56
2023/05/26 09:56:47;;;;;;;10.00;4.37;;;23.30;99.90;;;;;;5082977;28;20818;-57
2023/05/26 09:59:15;;;;;;;8.90;4.40;;;23.00;99.90;;;;;;5069433;28;20439;-57
2023/05/26 10:01:42;;;;;;;9.40;4.90;;;22.50;99.90;;;;;;5073192;28;20452;-57
2023/05/26 10:04:09;;;;;;;11.63;6.10;;;22.70;99.90;;;;;;5081065;28;20529;-57
2023/05/26 10:06:38;;;;;;;12.63;5.57;;;22.90;99.90;;;;;;5071911;28;20788;-59
2023/05/26 10:09:07;;;;;;;9.57;4.33;;;22.60;99.90;;;;;;5069069;28;21007;-58
2023/05/26 10:11:38;;;;;;;10.87;5.57;;;22.40;99.90;;;;;;5071656;28;20506;-57
2023/05/26 10:14:05;;;;;;;6.80;4.73;;;21.80;99.90;;;;;;5067632;28;20548;-56
2023/05/26 10:16:31;;;;;;;11.00;4.40;;;21.70;99.90;;;;;;5074149;28;20870;-57
2023/05/26 10:18:57;;;;;;;8.03;4.97;;;21.50;99.90;;;;;;5067766;28;20481;-57
2023/05/26 10:21:33;;;;;;;11.00;6.20;;;21.50;99.90;;;;;;5070180;28;20495;-58
2023/05/26 10:24:35;;;;;;;11.70;4.70;;;21.30;99.90;;;;;;5069231;28;20503;-57
2023/05/26 10:27:20;;;;;;;9.83;4.60;;;21.50;99.90;;;;;;5073184;28;20446;-57
2023/05/26 10:29:52;;;;;;;8.83;4.33;;;21.30;99.90;;;;;;5067863;28;20533;-56
2023/05/26 10:32:42;;;;;;;9.07;3.90;;;21.10;99.90;;;;;;5068689;28;20508;-57
2023/05/26 10:35:30;;;;;;;11.97;4.70;;;21.40;99.90;;;;;;5079772;28;20557;-58
2023/05/26 10:38:13;;;;;;;8.37;3.93;;;21.60;99.90;;;;;;5081971;28;20457;-57
2023/05/26 10:40:51;;;;;;;4.87;3.30;;;21.80;99.90;;;;;;5070225;28;20445;-58
2023/05/26 10:43:24;;;;;;;8.77;4.20;;;21.90;99.90;;;;;;5064603;28;20669;-56
2023/05/26 10:46:02;;;;;;;9.00;3.90;;;22.10;99.90;;;;;;5070824;28;20447;-58
2023/05/26 10:48:36;;;;;;;8.40;4.70;;;22.50;99.90;;;;;;5069557;28;20443;-57
2023/05/26 10:51:16;;;;;;;9.23;4.97;;;22.90;99.90;;;;;;5065439;28;20527;-56
2023/05/26 10:53:42;;;;;;;7.73;3.70;;;22.70;99.90;;;;;;5062559;28;21269;-58
2023/05/26 10:56:12;;;;;;;8.10;5.10;;;22.50;99.90;;;;;;5065922;28;20456;-57
2023/05/26 10:58:40;;;;;;;7.60;3.80;;;22.50;99.90;;;;;;5059736;28;20471;-58
2023/05/26 11:01:08;;;;;;;6.47;3.40;;;22.60;99.90;;;;;;5066895;28;20450;-58
2023/05/26 11:03:47;;;;;;;8.00;3.90;;;22.40;99.90;;;;;;5064562;28;20524;-57
2023/05/26 11:06:31;;;;;;;7.80;3.43;;;23.50;99.90;;;;;;5087610;28;20439;-57
2023/05/26 11:09:02;;;;;;;7.83;3.93;;;22.00;99.90;;;;;;5067162;28;20884;-57
2023/05/26 11:11:29;;;;;;;9.87;4.70;;;21.70;99.90;;;;;;5069521;28;20438;-58
2023/05/26 11:14:09;;;;;;;9.00;3.97;;;21.80;99.90;;;;;;5070045;28;20918;-57
2023/05/26 11:16:37;;;;;;;7.80;3.90;;;22.10;99.90;;;;;;5086591;28;20440;-57
2023/05/26 11:19:07;;;;;;;11.90;4.23;;;22.30;99.90;;;;;;5090092;28;20568;-57
2023/05/26 11:21:35;;;;;;;8.77;4.23;;;22.60;99.90;;;;;;5084911;28;20451;-56
2023/05/26 11:24:02;;;;;;;6.20;3.70;;;22.70;99.90;;;;;;5069309;28;20457;-57
2023/05/26 11:26:32;;;;;;;7.03;4.00;;;22.50;99.90;;;;;;5069822;28;20448;-57
2023/05/26 11:29:02;;;;;;;9.13;4.03;;;22.50;99.90;;;;;;5069557;28;20436;-57
2023/05/26 11:31:29;;;;;;;6.10;4.10;;;22.50;99.90;;;;;;5069461;28;20445;-58
2023/05/26 11:33:57;;;;;;;7.40;3.77;;;22.50;99.90;;;;;;5069372;28;20468;-58
2023/05/26 11:36:23;;;;;;;11.03;4.13;;;22.60;99.90;;;;;;5068720;28;20452;-58
2023/05/26 11:38:57;;;;;;;9.87;4.10;;;22.80;99.90;;;;;;5068649;28;20442;-57
2023/05/26 11:41:25;;;;;;;8.17;4.17;;;22.80;99.90;;;;;;5069701;28;20469;-57
2023/05/26 11:43:55;;;;;;;7.67;3.90;;;22.70;99.90;;;;;;5077147;28;20522;-57
2023/05/26 11:46:21;;;;;;;9.63;4.50;;;22.40;99.90;;;;;;5089424;28;20426;-56
2023/05/26 11:48:47;;;;;;;7.07;3.40;;;22.50;99.90;;;;;;5083574;28;20916;-57
2023/05/26 11:51:17;;;;;;;15.57;4.57;;;22.80;99.90;;;;;;5069096;28;20462;-57
2023/05/26 11:53:45;;;;;;;6.87;3.60;;;22.90;99.90;;;;;;5067832;28;20194;-56
2023/05/26 11:56:15;;;;;;;8.20;3.90;;;23.10;99.90;;;;;;5067543;28;20512;-57
2023/05/26 11:58:46;;;;;;;11.40;3.70;;;22.90;99.90;;;;;;5068919;28;20475;-57
2023/05/26 12:01:13;;;;;;;7.33;3.73;;;23.20;99.90;;;;;;5069435;28;20439;-58
2023/05/26 12:03:41;;;;;;;10.37;3.80;;;23.00;99.90;;;;;;5068915;28;20469;-56
2023/05/26 12:06:15;;;;;;;10.90;3.70;;;22.80;99.90;;;;;;5069080;28;20923;-57
2023/05/26 12:08:55;;;;;;;7.30;3.47;;;22.60;99.90;;;;;;5068572;28;20431;-58
2023/05/26 12:11:37;;;;;;;9.27;3.63;;;22.60;99.90;;;;;;5067559;28;20802;-58
2023/05/26 12:14:05;;;;;;;9.20;3.80;;;22.60;99.90;;;;;;5068887;28;20526;-58
2023/05/26 12:16:38;;;;;;;7.67;2.97;;;22.70;99.90;;;;;;5069124;28;20653;-58
2023/05/26 12:19:10;;;;;;;9.57;4.30;;;22.80;99.90;;;;;;5068797;28;20447;-58
2023/05/26 12:21:56;;;;;;;7.93;4.67;;;22.80;99.90;;;;;;5068788;28;20442;-57
2023/05/26 12:24:35;;;;;;;9.60;4.07;;;22.70;99.90;;;;;;5067926;28;20466;-57
2023/05/26 12:27:11;;;;;;;6.80;3.60;;;22.60;99.90;;;;;;5069065;28;20441;-58
2023/05/26 12:29:39;;;;;;;10.10;4.13;;;22.90;99.90;;;;;;5067798;28;20518;-58
2023/05/26 12:32:06;;;;;;;8.17;3.37;;;23.20;99.90;;;;;;5068863;28;20428;-57
2023/05/26 12:34:33;;;;;;;6.17;3.40;;;23.10;99.90;;;;;;5067431;28;21014;-57
2023/05/26 12:36:59;;;;;;;5.93;2.60;;;22.70;99.90;;;;;;5064842;28;20469;-58
2023/05/26 12:39:26;;;;;;;8.97;3.43;;;22.50;99.90;;;;;;5067381;28;20466;-58
2023/05/26 12:41:51;;;;;;;7.93;3.40;;;22.80;99.90;;;;;;5071149;28;20208;-57
2023/05/26 12:44:17;;;;;;;7.70;3.67;;;22.80;99.90;;;;;;5068577;28;20445;-58
2023/05/26 12:46:44;;;;;;;9.53;3.70;;;22.90;99.90;;;;;;5067957;28;20201;-58
2023/05/26 12:49:10;;;;;;;9.40;4.00;;;23.00;99.90;;;;;;5067740;28;20263;-57